Time;durP1;ratioP1;P1;durP2;ratioP2;P2;SDS_P1;SDS_P2;PMS_P1;PMS_P2;Temp;Humidity;BMP_temperature;BMP_pressure;BME280_temperature;BME280_humidity;BME280_pressure;Samples;Min_cycle;Max_cycle;Signal;HPM_P1;HPM_P2
2023/04/09 00:03:21;;;;;;;5.10;4.50;;;;;;;7.39;68.83;100229.96;435995;1254;138985;-70
2023/04/09 00:13:28;;;;;;;4.90;4.00;;;;;;;7.37;69.16;100226.88;436198;1251;140663;-70
2023/04/09 00:23:44;;;;;;;4.80;4.00;;;;;;;7.37;69.12;100223.98;436635;1253;140046;-71
2023/04/09 00:33:50;;;;;;;6.00;5.40;;;;;;;7.37;69.34;100219.41;436481;1253;139251;-68
2023/04/09 00:43:57;;;;;;;6.00;4.40;;;;;;;7.38;69.65;100217.49;436550;1250;139690;-70
2023/04/09 00:54:02;;;;;;;6.70;6.00;;;;;;;7.36;69.91;100215.64;436648;1253;138959;-70
2023/04/09 01:04:08;;;;;;;5.90;5.10;;;;;;;7.36;70.05;100202.92;436356;1251;139239;-70
2023/04/09 01:14:24;;;;;;;6.40;5.50;;;;;;;7.35;70.28;100201.02;436466;1250;140155;-69
2023/04/09 01:24:44;;;;;;;7.00;5.60;;;;;;;7.35;70.65;100199.81;437300;1253;139102;-68
2023/04/09 01:34:51;;;;;;;7.10;5.30;;;;;;;7.33;71.04;100191.19;436666;1250;139930;-70
2023/04/09 01:44:58;;;;;;;8.20;5.80;;;;;;;7.32;71.37;100193.52;436488;1251;139989;-69
2023/04/09 01:55:05;;;;;;;7.30;6.00;;;;;;;7.25;71.80;100187.84;436369;1250;139383;-69
2023/04/09 02:05:15;;;;;;;8.20;6.10;;;;;;;7.20;72.30;100180.76;436403;1250;138957;-70
2023/04/09 02:15:21;;;;;;;8.40;6.10;;;;;;;7.14;72.70;100183.77;437054;1253;139022;-70
2023/04/09 02:25:28;;;;;;;8.40;7.10;;;;;;;7.10;72.88;100178.01;436403;1251;139855;-70
2023/04/09 02:35:34;;;;;;;10.90;8.10;;;;;;;7.02;73.53;100172.23;436787;1251;140091;-69
2023/04/09 02:45:40;;;;;;;12.20;9.80;;;;;;;6.99;74.05;100177.59;436588;1251;139831;-69
2023/04/09 02:55:45;;;;;;;10.80;8.20;;;;;;;6.93;74.77;100172.23;436257;1253;140064;-68
2023/04/09 03:05:51;;;;;;;10.00;8.00;;;;;;;6.86;75.20;100169.40;436506;1250;140534;-70
2023/04/09 03:15:57;;;;;;;10.70;9.00;;;;;;;6.86;75.76;100168.16;436298;1251;140195;-69
2023/04/09 03:26:04;;;;;;;12.50;9.70;;;;;;;6.82;76.12;100166.39;436222;1253;140468;-70
2023/04/09 03:36:10;;;;;;;13.20;10.90;;;;;;;6.77;76.85;100170.96;436240;1253;139265;-70
2023/04/09 03:46:16;;;;;;;13.10;10.50;;;;;;;6.72;77.36;100165.21;436751;1251;141004;-69
2023/04/09 03:56:22;;;;;;;14.30;11.30;;;;;;;6.65;77.87;100163.40;436296;1253;139719;-70
2023/04/09 04:06:28;;;;;;;11.60;10.30;;;;;;;6.59;78.39;100163.10;436273;1251;139236;-69
2023/04/09 04:16:34;;;;;;;14.10;11.20;;;;;;;6.56;79.00;100163.38;436288;1251;141660;-69
2023/04/09 04:26:40;;;;;;;14.10;12.40;;;;;;;6.51;79.68;100163.25;436297;1251;140321;-69
2023/04/09 04:36:46;;;;;;;17.20;12.80;;;;;;;6.48;80.34;100155.89;436225;1251;139901;-68
2023/04/09 04:46:52;;;;;;;15.70;13.70;;;;;;;6.46;80.90;100162.01;436324;1253;139588;-69
2023/04/09 04:56:58;;;;;;;19.70;15.70;;;;;;;6.50;81.37;100166.04;436360;1251;140902;-69
2023/04/09 05:07:04;;;;;;;18.20;14.70;;;;;;;6.60;81.75;100172.64;436677;1253;139787;-69
2023/04/09 05:17:10;;;;;;;21.40;16.50;;;;;;;6.71;82.00;100174.64;436980;1251;140445;-68
2023/04/09 05:27:15;;;;;;;23.20;17.10;;;;;;;6.91;81.82;100174.39;436522;1251;141440;-68
2023/04/09 05:37:21;;;;;;;21.50;17.30;;;;;;;7.07;81.70;100177.62;436358;1253;141364;-69
2023/04/09 05:47:27;;;;;;;22.20;18.10;;;;;;;7.14;81.57;100175.06;436643;1251;139146;-69
2023/04/09 05:57:33;;;;;;;23.60;19.30;;;;;;;7.22;81.33;100178.90;436532;1254;141146;-69
2023/04/09 06:07:39;;;;;;;26.50;21.90;;;;;;;7.36;81.33;100175.56;436276;1250;140030;-68
2023/04/09 06:17:45;;;;;;;23.90;19.60;;;;;;;7.64;81.06;100174.09;436448;1255;139386;-69
2023/04/09 06:27:51;;;;;;;23.50;20.60;;;;;;;7.75;80.60;100174.64;435915;1254;139844;-69
2023/04/09 06:37:57;;;;;;;24.10;19.60;;;;;;;8.02;80.54;100182.54;436941;1251;141632;-69
2023/04/09 06:48:03;;;;;;;21.90;19.20;;;;;;;8.67;79.95;100200.77;436785;1251;139271;-69
2023/04/09 06:58:09;;;;;;;25.00;21.30;;;;;;;10.42;78.36;100208.17;437068;1251;140541;-69
2023/04/09 07:08:15;;;;;;;23.10;20.00;;;;;;;15.38;73.45;100202.64;436660;1253;139836;-70
2023/04/09 07:18:21;;;;;;;22.70;20.40;;;;;;;15.62;66.70;100208.67;437019;1251;140265;-69
2023/04/09 07:28:26;;;;;;;24.90;21.70;;;;;;;15.74;65.34;100212.89;437230;1251;141065;-67
2023/04/09 07:38:33;;;;;;;22.50;19.90;;;;;;;16.23;63.19;100213.98;437676;1253;140835;-68
2023/04/09 07:48:39;;;;;;;23.80;21.40;;;;;;;21.00;60.24;100201.35;437180;1251;139287;-69
2023/04/09 07:58:45;;;;;;;23.10;20.90;;;;;;;21.97;53.91;100204.75;436705;1250;141031;-68
2023/04/09 08:08:50;;;;;;;23.30;21.10;;;;;;;22.31;53.16;100202.39;436687;1251;139461;-71
2023/04/09 08:18:55;;;;;;;;;;;;;;;28.13;48.15;100193.58;436782;1253;140281;-69
2023/04/09 08:29:01;;;;;;;19.60;17.90;;;;;;;30.96;43.09;100192.80;436944;1251;124937;-69
2023/04/09 08:39:07;;;;;;;17.80;16.20;;;;;;;28.45;39.64;100192.75;436849;1251;141245;-68
2023/04/09 08:49:13;;;;;;;14.50;13.10;;;;;;;24.12;40.75;100193.13;436833;1251;139771;-70
2023/04/09 08:59:19;;;;;;;13.10;11.80;;;;;;;21.36;41.54;100194.35;436989;1251;140070;-68
2023/04/09 09:09:25;;;;;;;12.50;11.30;;;;;;;20.31;42.78;100196.96;436842;1251;139984;-69
2023/04/09 09:19:33;;;;;;;12.90;11.60;;;;;;;19.23;43.40;100192.35;437174;1251;139808;-70
2023/04/09 09:29:41;;;;;;;;;;;;;;;17.52;45.24;100197.83;437159;1253;140678;-68
2023/04/09 09:39:45;;;;;;;;;;;;;;;16.01;46.82;100203.40;436991;1253;125658;-69
2023/04/09 09:49:52;;;;;;;14.50;12.40;;;;;;;14.75;48.73;100208.81;437071;1253;126616;-68
2023/04/09 10:00:03;;;;;;;11.80;10.60;;;;;;;13.97;50.29;100205.07;436778;1253;139653;-68
2023/04/09 10:10:10;;;;;;;12.80;11.40;;;;;;;14.11;51.26;100200.05;436871;1251;138928;-70
2023/04/09 10:20:24;;;;;;;11.70;10.30;;;;;;;15.14;51.13;100197.74;436710;1251;139002;-68
2023/04/09 10:30:36;;;;;;;17.40;15.60;;;;;;;15.72;50.62;100196.66;437031;1253;141168;-70
2023/04/09 10:40:49;;;;;;;14.90;13.10;;;;;;;14.56;51.71;100198.35;436718;1253;138878;-68
2023/04/09 10:50:55;;;;;;;16.00;14.40;;;;;;;13.73;53.09;100196.95;436796;1253;160827;-70
2023/04/09 11:01:02;;;;;;;19.30;14.90;;;;;;;13.30;54.18;100198.22;436934;1253;139281;-69
2023/04/09 11:11:08;;;;;;;14.80;13.00;;;;;;;12.95;55.23;100200.96;436776;1253;139356;-68
2023/04/09 11:21:15;;;;;;;14.70;13.10;;;;;;;12.52;56.05;100204.21;436723;1253;139099;-70
2023/04/09 11:31:26;;;;;;;20.50;15.80;;;;;;;12.19;56.90;100210.09;436630;1253;139644;-70
2023/04/09 11:41:36;;;;;;;16.50;13.80;;;;;;;12.08;57.56;100207.77;436780;1251;139226;-69
2023/04/09 11:51:42;;;;;;;20.40;17.10;;;;;;;11.94;58.12;100210.46;436708;1256;139400;-70
2023/04/09 12:01:51;;;;;;;20.30;18.10;;;;;;;12.14;58.47;100208.06;436482;1255;139058;-70
2023/04/09 12:12:00;;;;;;;22.20;17.40;;;;;;;12.47;58.63;100208.73;436680;1256;142845;-70
2023/04/09 12:22:05;;;;;;;18.80;16.90;;;;;;;12.91;58.49;100206.33;436158;1254;140251;-69
2023/04/09 12:32:11;;;;;;;18.50;16.50;;;;;;;13.17;58.10;100209.02;436271;1252;140089;-69
2023/04/09 12:42:17;;;;;;;17.70;15.70;;;;;;;13.11;57.96;100208.02;437771;1253;139394;-69
2023/04/09 12:52:23;;;;;;;17.00;14.70;;;;;;;13.17;58.29;100204.86;436585;1253;140087;-71
2023/04/09 13:02:29;;;;;;;19.50;17.10;;;;;;;13.14;58.27;100197.83;437416;1251;139396;-70
2023/04/09 13:12:35;;;;;;;19.60;17.60;;;;;;;12.92;58.66;100201.33;437026;1251;139863;-70
2023/04/09 13:22:41;;;;;;;23.70;19.40;;;;;;;12.55;59.65;100204.04;436631;1253;140108;-69
2023/04/09 13:32:47;;;;;;;24.20;21.70;;;;;;;12.10;61.57;100206.73;436998;1253;139569;-71
2023/04/09 13:42:53;;;;;;;26.70;21.60;;;;;;;11.62;63.51;100206.52;437080;1251;139437;-70
2023/04/09 13:53:01;;;;;;;25.60;21.80;;;;;;;11.27;65.76;100208.89;436886;1253;140589;-69
2023/04/09 14:03:07;;;;;;;26.10;20.60;;;;;;;11.27;67.31;100204.20;437089;1253;140367;-70
2023/04/09 14:13:14;;;;;;;26.70;23.20;;;;;;;11.47;68.43;100198.83;436917;1253;140576;-69
2023/04/09 14:23:20;;;;;;;25.30;21.40;;;;;;;11.79;69.16;100197.84;437328;1249;140285;-70
2023/04/09 14:33:26;;;;;;;22.40;20.00;;;;;;;11.73;69.47;100189.64;437046;1253;140483;-68
2023/04/09 14:43:31;;;;;;;21.80;19.10;;;;;;;11.44;70.15;100181.64;437778;1253;139918;-69
2023/04/09 14:53:37;;;;;;;21.80;19.60;;;;;;;11.52;70.81;100170.84;437925;1251;139603;-70
2023/04/09 15:03:43;;;;;;;20.70;18.60;;;;;;;11.73;71.04;100169.40;437286;1253;139591;-69
2023/04/09 15:13:51;;;;;;;19.10;16.50;;;;;;;11.84;70.68;100173.52;437410;1253;140490;-70
2023/04/09 15:23:57;;;;;;;23.70;20.30;;;;;;;11.58;70.53;100176.41;437676;1253;140103;-70
2023/04/09 15:34:03;;;;;;;22.20;20.00;;;;;;;11.26;71.38;100182.53;437111;1253;140670;-69
2023/04/09 15:44:09;;;;;;;26.40;22.40;;;;;;;10.99;72.40;100187.55;437171;1254;140098;-68
2023/04/09 15:54:15;;;;;;;24.10;21.60;;;;;;;10.91;73.48;100191.98;437027;1251;139835;-71
2023/04/09 16:04:21;;;;;;;21.90;19.50;;;;;;;10.88;73.98;100190.73;436984;1251;140434;-70
2023/04/09 16:14:28;;;;;;;26.90;21.70;;;;;;;10.77;74.30;100192.57;436953;1251;141723;-70
2023/04/09 16:24:34;;;;;;;25.80;22.10;;;;;;;10.58;74.96;100193.75;437037;1251;140340;-69
2023/04/09 16:34:40;;;;;;;25.30;22.60;;;;;;;10.32;75.88;100187.96;436726;1251;141246;-69
2023/04/09 16:44:46;;;;;;;24.60;21.30;;;;;;;10.04;76.86;100186.60;436919;1251;142958;-69
2023/04/09 16:54:52;;;;;;;25.90;21.90;;;;;;;9.92;77.45;100194.91;436426;1251;140901;-68
2023/04/09 17:04:58;;;;;;;25.80;20.70;;;;;;;9.84;77.90;100204.79;436835;1253;139626;-69
2023/04/09 17:15:04;;;;;;;26.30;23.40;;;;;;;9.68;78.55;100211.02;437065;1253;141165;-69
2023/04/09 17:25:11;;;;;;;31.20;27.50;;;;;;;9.51;79.55;100214.33;436576;1253;141825;-69
2023/04/09 17:35:16;;;;;;;32.20;27.10;;;;;;;9.29;80.59;100223.56;436992;1251;139917;-69
2023/04/09 17:45:22;;;;;;;36.70;28.90;;;;;;;9.08;81.53;100236.28;436695;1250;140204;-69
2023/04/09 17:55:29;;;;;;;32.10;26.80;;;;;;;8.82;82.25;100252.83;436208;1253;140175;-69
2023/04/09 18:05:35;;;;;;;35.60;29.80;;;;;;;8.51;83.58;100257.34;436998;1253;142020;-70
2023/04/09 18:15:41;;;;;;;38.20;30.90;;;;;;;8.24;85.16;100263.02;437169;1251;140454;-70
2023/04/09 18:25:48;;;;;;;36.90;28.40;;;;;;;7.99;86.67;100275.80;436883;1253;140838;-70
2023/04/09 18:35:54;;;;;;;38.30;30.30;;;;;;;7.72;87.88;100283.20;437018;1251;139570;-72
2023/04/09 18:46:00;;;;;;;37.20;29.20;;;;;;;7.52;89.11;100285.91;437505;1251;140441;-69
2023/04/09 18:56:07;;;;;;;34.10;29.50;;;;;;;7.34;89.09;100300.70;436931;1252;140892;-69
2023/04/09 19:06:16;;;;;;;35.90;28.60;;;;;;;7.23;89.42;100296.62;437331;1253;139235;-68
2023/04/09 19:16:22;;;;;;;36.60;25.50;;;;;;;7.14;89.91;100295.87;437049;1251;140783;-70
2023/04/09 19:26:28;;;;;;;32.40;25.40;;;;;;;7.07;90.50;100299.98;436868;1251;139678;-70
2023/04/09 19:36:34;;;;;;;29.50;25.60;;;;;;;6.98;90.58;100305.71;436987;1251;140048;-69
2023/04/09 19:46:40;;;;;;;41.60;32.00;;;;;;;6.90;91.07;100311.08;437065;1251;140930;-69
2023/04/09 19:56:45;;;;;;;39.30;30.50;;;;;;;6.88;92.59;100308.02;436639;1251;139370;-69
2023/04/09 20:06:51;;;;;;;39.70;31.60;;;;;;;6.87;94.81;100308.92;437017;1253;140263;-69
2023/04/09 20:16:57;;;;;;;37.70;30.30;;;;;;;6.85;95.57;100315.45;436812;1253;139966;-70
2023/04/09 20:27:03;;;;;;;36.00;29.60;;;;;;;6.81;95.77;100321.31;437037;1250;140956;-69
2023/04/09 20:37:09;;;;;;;37.50;31.30;;;;;;;6.77;95.81;100319.40;436734;1252;141155;-69
2023/04/09 20:47:15;;;;;;;36.30;29.30;;;;;;;6.74;96.36;100320.34;437093;1253;140692;-70
2023/04/09 20:57:21;;;;;;;42.30;30.00;;;;;;;6.69;96.23;100320.36;437381;1249;140377;-70
2023/04/09 21:07:27;;;;;;;44.90;33.70;;;;;;;6.70;96.61;100316.86;437482;1251;140864;-71
2023/04/09 21:17:33;;;;;;;45.00;34.20;;;;;;;6.72;97.46;100313.11;437125;1251;139643;-69
2023/04/09 21:27:39;;;;;;;48.10;36.70;;;;;;;6.71;97.63;100308.30;436923;1251;140821;-70
2023/04/09 21:37:45;;;;;;;49.20;38.00;;;;;;;6.72;97.97;100307.73;436991;1253;140407;-70
2023/04/09 21:47:51;;;;;;;45.20;34.90;;;;;;;6.73;98.17;100308.57;436975;1253;139649;-68
2023/04/09 21:57:57;;;;;;;43.20;35.50;;;;;;;6.72;98.56;100304.58;436570;1249;140946;-74
2023/04/09 22:08:03;;;;;;;44.10;34.90;;;;;;;6.72;98.91;100298.33;436921;1250;140800;-69
2023/04/09 22:18:09;;;;;;;45.10;35.60;;;;;;;6.76;99.34;100302.38;437307;1251;139744;-69
2023/04/09 22:28:14;;;;;;;44.60;35.80;;;;;;;6.78;99.66;100306.98;436960;1253;139322;-72
2023/04/09 22:38:21;;;;;;;42.00;33.40;;;;;;;6.78;99.72;100307.70;437399;1251;140961;-70
2023/04/09 22:48:27;;;;;;;42.50;33.60;;;;;;;6.75;99.86;100303.26;437031;1250;156353;-69
2023/04/09 22:58:34;;;;;;;42.80;33.50;;;;;;;6.74;99.81;100300.52;436777;1251;141303;-69
2023/04/09 23:08:40;;;;;;;44.40;34.40;;;;;;;6.68;99.93;100303.86;436548;1251;140407;-70
2023/04/09 23:18:46;;;;;;;45.00;35.20;;;;;;;6.67;100.00;100306.53;436564;1253;141049;-68
2023/04/09 23:28:51;;;;;;;44.10;33.20;;;;;;;6.66;100.00;100300.98;436863;1253;142237;-70
2023/04/09 23:38:58;;;;;;;41.50;30.70;;;;;;;6.61;100.00;100295.58;436701;1250;140222;-69
2023/04/09 23:49:03;;;;;;;41.50;33.20;;;;;;;6.51;100.00;100287.78;437090;1251;141856;-69
2023/04/09 23:59:09;;;;;;;39.40;31.60;;;;;;;6.44;100.00;100280.54;437447;1253;139359;-67
